createdAt,value
2019-02-27T00:01:55.463Z,44.79
2019-02-27T00:04:25.091Z,44.98
2019-02-27T00:06:56.649Z,44.80
2019-02-27T00:09:26.226Z,46.00
2019-02-27T00:11:55.892Z,45.95
2019-02-27T00:14:25.476Z,46.93
2019-02-27T00:16:55.242Z,47.21
2019-02-27T00:19:24.846Z,46.32
2019-02-27T00:21:54.401Z,47.04
2019-02-27T00:24:24.017Z,45.66
2019-02-27T00:26:53.621Z,46.18
2019-02-27T00:29:23.246Z,46.28
2019-02-27T00:31:52.791Z,45.32
2019-02-27T00:34:22.378Z,45.36
2019-02-27T00:36:52.014Z,45.75
2019-02-27T00:39:22.488Z,46.20
2019-02-27T00:41:52.181Z,46.57
2019-02-27T00:44:21.789Z,47.20
2019-02-27T00:46:51.462Z,47.68
2019-02-27T00:49:21.038Z,46.89
2019-02-27T00:51:50.642Z,46.95
2019-02-27T00:54:20.257Z,47.68
2019-02-27T00:56:49.822Z,47.34
2019-02-27T00:59:19.428Z,47.73
2019-02-27T01:01:49.023Z,46.52
2019-02-27T01:04:18.581Z,47.49
2019-02-27T01:06:48.233Z,47.03
2019-02-27T01:09:17.901Z,47.46
2019-02-27T01:11:51.646Z,47.69
2019-02-27T01:14:18.819Z,48.08
2019-02-27T01:16:50.271Z,48.69
2019-02-27T01:19:19.774Z,48.78
2019-02-27T01:21:49.359Z,49.26
2019-02-27T01:24:18.972Z,48.96
2019-02-27T01:26:48.608Z,47.55
2019-02-27T01:29:18.775Z,49.00
2019-02-27T01:31:48.479Z,49.35
2019-02-27T01:34:18.087Z,48.39
2019-02-27T01:36:47.675Z,48.66
2019-02-27T01:39:17.255Z,49.28
2019-02-27T01:41:46.839Z,48.32
2019-02-27T01:44:16.487Z,48.77
2019-02-27T01:46:46.767Z,49.28
2019-02-27T01:49:16.818Z,49.58
2019-02-27T01:51:46.513Z,49.23
2019-02-27T01:54:16.097Z,49.36
2019-02-27T01:56:45.784Z,50.30
2019-02-27T01:59:16.878Z,49.73
2019-02-27T02:01:46.742Z,49.92
2019-02-27T02:04:20.075Z,49.76
2019-02-27T02:06:47.687Z,49.87
2019-02-27T02:09:33.909Z,49.39
2019-02-27T02:12:09.171Z,49.44
2019-02-27T02:15:15.332Z,50.04
2019-02-27T02:18:41.002Z,50.54
2019-02-27T02:21:23.873Z,50.47
2019-02-27T02:24:39.302Z,49.95
2019-02-27T02:27:47.334Z,50.21
2019-02-27T02:31:04.975Z,51.27
2019-02-27T02:34:11.441Z,50.02
2019-02-27T02:37:07.028Z,49.54
2019-02-27T02:40:12.140Z,49.06
2019-02-27T02:43:40.214Z,49.17
2019-02-27T02:46:14.035Z,48.99
2019-02-27T02:49:14.715Z,49.57
2019-02-27T02:52:26.964Z,49.92
2019-02-27T02:55:48.812Z,50.59
2019-02-27T02:58:48.378Z,50.16
2019-02-27T03:01:25.401Z,49.97
2019-02-27T03:04:27.267Z,50.28
2019-02-27T03:07:31.681Z,50.11
2019-02-27T03:10:08.789Z,49.38
2019-02-27T03:13:25.092Z,49.47
2019-02-27T03:16:06.261Z,50.05
2019-02-27T03:19:23.628Z,49.83
2019-02-27T03:22:12.667Z,50.12
2019-02-27T03:25:11.069Z,49.81
2019-02-27T03:28:19.970Z,49.77
2019-02-27T03:31:18.053Z,49.56
2019-02-27T03:34:47.989Z,49.32
2019-02-27T03:37:27.705Z,49.91
2019-02-27T03:40:22.641Z,49.51
2019-02-27T03:43:28.183Z,49.66
2019-02-27T03:46:47.961Z,50.81
2019-02-27T03:50:01.292Z,51.52
2019-02-27T03:52:54.609Z,51.77
2019-02-27T03:55:55.588Z,52.60
2019-02-27T03:59:06.327Z,52.61
2019-02-27T04:02:12.093Z,52.55
2019-02-27T04:05:13.312Z,51.88
2019-02-27T04:08:23.607Z,51.47
2019-02-27T04:10:53.292Z,51.71
2019-02-27T04:13:26.832Z,50.60
2019-02-27T04:15:54.456Z,50.51
2019-02-27T04:18:27.498Z,51.10
2019-02-27T04:20:53.414Z,51.74
2019-02-27T04:23:23.061Z,51.90
2019-02-27T04:25:54.724Z,51.90
2019-02-27T04:28:24.061Z,51.68
2019-02-27T04:30:53.638Z,52.30
2019-02-27T04:33:24.303Z,51.14
2019-02-27T04:35:53.884Z,51.43
2019-02-27T04:38:25.033Z,50.60
2019-02-27T04:40:54.863Z,50.00
2019-02-27T04:43:24.451Z,49.43
2019-02-27T04:45:54.138Z,48.83
2019-02-27T04:48:23.738Z,48.78
2019-02-27T04:50:53.355Z,48.86
2019-02-27T04:53:22.971Z,48.15
2019-02-27T04:55:52.589Z,49.14
2019-02-27T04:58:22.161Z,47.40
2019-02-27T05:00:51.756Z,47.34
2019-02-27T05:03:21.380Z,47.15
2019-02-27T05:05:51.011Z,46.85
2019-02-27T05:08:20.586Z,46.09
2019-02-27T05:10:50.204Z,46.04
2019-02-27T05:13:20.899Z,47.05
2019-02-27T05:15:50.948Z,47.12
2019-02-27T05:18:20.581Z,47.53
2019-02-27T05:20:50.154Z,47.05
2019-02-27T05:23:19.728Z,47.18
2019-02-27T05:25:49.408Z,47.56
2019-02-27T05:28:19.077Z,49.57
2019-02-27T05:30:48.772Z,48.41
2019-02-27T05:33:18.368Z,48.56
2019-02-27T05:35:47.986Z,48.73
2019-02-27T05:38:17.614Z,49.94
2019-02-27T05:40:47.219Z,51.53
2019-02-27T05:43:16.843Z,52.30
2019-02-27T05:45:46.445Z,52.83
2019-02-27T05:48:19.877Z,52.47
2019-02-27T05:50:47.422Z,52.07
2019-02-27T05:53:17.010Z,51.28
2019-02-27T05:55:46.649Z,51.03
2019-02-27T05:58:16.254Z,50.69
2019-02-27T06:00:45.910Z,49.77
2019-02-27T06:03:15.961Z,52.29
2019-02-27T06:05:49.515Z,51.50
2019-02-27T06:08:18.494Z,52.26
2019-02-27T06:10:48.143Z,52.35
2019-02-27T06:13:17.750Z,52.80
2019-02-27T06:15:49.145Z,52.20
2019-02-27T06:18:22.478Z,52.77
2019-02-27T06:20:50.303Z,52.01
2019-02-27T06:23:19.995Z,52.72
2019-02-27T06:25:49.659Z,50.57
2019-02-27T06:28:19.439Z,49.21
2019-02-27T06:30:49.015Z,48.96
2019-02-27T06:33:18.666Z,50.02
2019-02-27T06:35:49.452Z,51.48
2019-02-27T06:38:19.404Z,53.18
2019-02-27T06:40:49.134Z,54.86
2019-02-27T06:43:19.102Z,55.40
2019-02-27T06:45:48.958Z,55.32
2019-02-27T06:48:18.649Z,55.43
2019-02-27T06:50:48.393Z,54.59
2019-02-27T06:53:18.183Z,52.99
2019-02-27T06:55:47.899Z,56.25
2019-02-27T06:58:17.535Z,51.90
2019-02-27T07:00:47.319Z,50.80
2019-02-27T07:03:17.000Z,49.25
2019-02-27T07:05:48.124Z,49.29
2019-02-27T07:08:18.397Z,48.18
2019-02-27T07:10:48.052Z,47.94
2019-02-27T07:13:17.677Z,49.77
2019-02-27T07:15:48.301Z,50.06
2019-02-27T07:18:18.568Z,49.34
2019-02-27T07:20:48.209Z,49.61
2019-02-27T07:23:22.608Z,48.94
2019-02-27T07:25:50.141Z,50.06
2019-02-27T07:28:20.084Z,49.68
2019-02-27T07:30:49.712Z,49.83
2019-02-27T07:33:19.767Z,50.91
2019-02-27T07:35:49.430Z,51.15
2019-02-27T07:38:21.568Z,51.53
2019-02-27T07:40:51.102Z,53.06
2019-02-27T07:43:21.020Z,52.38
2019-02-27T07:45:50.592Z,52.78
2019-02-27T07:48:20.394Z,54.45
2019-02-27T07:50:50.308Z,52.88
2019-02-27T07:53:21.433Z,53.72
2019-02-27T07:55:51.072Z,53.39
2019-02-27T07:58:20.725Z,51.97
2019-02-27T08:00:50.799Z,53.98
2019-02-27T08:03:20.921Z,53.64
2019-02-27T08:05:50.592Z,53.88
2019-02-27T08:08:23.231Z,54.38
2019-02-27T08:10:51.774Z,52.80
2019-02-27T08:13:21.424Z,52.89
2019-02-27T08:15:51.064Z,52.84
2019-02-27T08:18:29.818Z,53.89
2019-02-27T08:20:54.373Z,54.14
2019-02-27T08:23:23.789Z,54.72
2019-02-27T08:25:54.919Z,55.51
2019-02-27T08:28:24.515Z,55.42
2019-02-27T08:30:54.262Z,54.83
2019-02-27T08:33:23.890Z,56.40
2019-02-27T08:35:53.539Z,56.17
2019-02-27T08:38:23.741Z,56.82
2019-02-27T08:40:57.546Z,56.75
2019-02-27T08:43:24.823Z,55.71
2019-02-27T08:45:54.473Z,55.00
2019-02-27T08:48:24.080Z,54.96
2019-02-27T08:50:53.684Z,54.76
2019-02-27T08:53:26.793Z,55.56
2019-02-27T08:55:54.703Z,55.63
2019-02-27T08:58:26.761Z,54.25
2019-02-27T09:00:55.671Z,54.29
2019-02-27T09:03:25.402Z,53.45
2019-02-27T09:05:55.023Z,53.95
2019-02-27T09:08:24.636Z,54.05
2019-02-27T09:10:54.354Z,55.71
2019-02-27T09:13:23.938Z,53.01
2019-02-27T09:15:53.840Z,54.52
2019-02-27T09:18:23.753Z,53.71
2019-02-27T09:20:54.215Z,54.92
2019-02-27T09:23:23.936Z,54.74
2019-02-27T09:25:57.421Z,54.81
2019-02-27T09:28:26.582Z,55.33
2019-02-27T09:30:56.152Z,55.49
2019-02-27T09:33:27.260Z,52.77
2019-02-27T09:35:56.896Z,53.86
2019-02-27T09:38:26.497Z,51.23
2019-02-27T09:40:56.165Z,51.74
2019-02-27T11:05:40.192Z,96.90
2019-02-27T11:08:09.981Z,93.96
2019-02-27T11:10:39.856Z,95.18
2019-02-27T11:13:09.460Z,92.00
2019-02-27T11:15:41.441Z,91.44
2019-02-27T11:18:10.734Z,90.61
2019-02-27T11:20:40.403Z,89.72
2019-02-27T11:23:10.182Z,87.91
2019-02-27T11:25:39.839Z,86.77
2019-02-27T11:28:09.423Z,85.47
2019-02-27T11:30:40.763Z,82.48
2019-02-27T11:33:10.605Z,85.37
2019-02-27T11:35:40.235Z,88.82
2019-02-27T11:38:09.983Z,85.14
2019-02-27T11:40:42.607Z,81.72
2019-02-27T11:43:11.048Z,85.79
2019-02-27T11:45:40.707Z,80.04
2019-02-27T11:48:10.365Z,81.21
2019-02-27T11:50:40.060Z,86.76
2019-02-27T11:53:09.734Z,87.65
2019-02-27T11:55:39.379Z,88.75
2019-02-27T11:58:09.028Z,95.62
2019-02-27T12:00:39.374Z,95.33
2019-02-27T12:03:11.161Z,97.85
2019-02-27T12:05:40.500Z,100.00
2019-02-27T12:08:11.406Z,100.00
2019-02-27T12:10:41.091Z,97.54
2019-02-27T12:13:10.715Z,91.17
2019-02-27T12:15:43.363Z,90.29
2019-02-27T12:18:11.988Z,91.30
2019-02-27T12:20:41.667Z,87.76
2019-02-27T12:23:11.287Z,86.01
2019-02-27T12:25:41.064Z,76.55
2019-02-27T12:28:11.090Z,75.83
2019-02-27T12:30:40.824Z,76.46
2019-02-27T12:33:10.717Z,76.69
2019-02-27T12:35:44.213Z,72.46
2019-02-27T12:38:11.763Z,74.28
2019-02-27T12:40:41.335Z,69.30
2019-02-27T12:43:11.021Z,70.97
2019-02-27T12:45:40.711Z,74.76
2019-02-27T12:48:12.558Z,74.32
2019-02-27T12:50:45.115Z,75.45
2019-02-27T12:53:14.742Z,77.26
2019-02-27T12:55:44.300Z,78.15
2019-02-27T12:58:14.139Z,75.06
2019-02-27T13:00:43.748Z,70.17
2019-02-27T13:03:13.431Z,72.09
2019-02-27T13:05:43.889Z,72.26
2019-02-27T13:08:13.536Z,74.57
2019-02-27T13:10:43.164Z,74.65
2019-02-27T13:13:12.856Z,72.78
2019-02-27T13:15:42.534Z,73.70
2019-02-27T13:18:12.205Z,74.12
2019-02-27T13:20:43.060Z,74.99
2019-02-27T13:23:13.288Z,73.36
2019-02-27T13:25:43.060Z,85.31
2019-02-27T13:28:14.582Z,68.56
2019-02-27T13:30:44.742Z,67.97
2019-02-27T13:33:14.370Z,67.67
2019-02-27T13:35:43.985Z,67.16
2019-02-27T13:38:17.465Z,68.26
2019-02-27T13:40:45.140Z,69.93
2019-02-27T13:43:14.767Z,69.93
2019-02-27T13:45:47.302Z,69.28
2019-02-27T13:48:15.899Z,67.20
2019-02-27T13:50:45.695Z,65.60
2019-02-27T13:53:15.411Z,64.44
2019-02-27T13:55:48.119Z,59.32
2019-02-27T13:58:16.913Z,59.32
2019-02-27T14:00:46.596Z,59.22
2019-02-27T14:03:16.421Z,57.93
2019-02-27T14:05:46.273Z,58.69
2019-02-27T14:08:15.999Z,56.85
2019-02-27T14:10:46.081Z,56.28
2019-02-27T14:13:15.690Z,56.21
2019-02-27T14:15:45.344Z,59.80
2019-02-27T14:18:16.126Z,58.06
2019-02-27T14:20:46.323Z,54.07
2019-02-27T14:23:15.915Z,52.33
2019-02-27T14:25:46.831Z,53.14
2019-02-27T14:28:18.369Z,52.12
2019-02-27T14:30:48.092Z,51.70
2019-02-27T14:33:19.318Z,49.53
2019-02-27T14:35:49.097Z,51.05
2019-02-27T14:38:21.895Z,49.29
2019-02-27T14:40:50.088Z,50.20
2019-02-27T14:43:19.702Z,49.28
2019-02-27T14:45:50.838Z,47.95
2019-02-27T14:48:21.581Z,48.41
2019-02-27T14:50:51.896Z,49.77
2019-02-27T14:53:21.493Z,48.54
2019-02-27T14:55:51.594Z,49.07
2019-02-27T14:58:24.023Z,48.85
2019-02-27T15:00:52.495Z,49.13
2019-02-27T15:03:22.116Z,48.22
2019-02-27T15:05:52.244Z,49.07
2019-02-27T15:08:21.830Z,49.12
2019-02-27T15:10:51.485Z,49.54
2019-02-27T15:13:21.132Z,51.05
2019-02-27T15:15:50.759Z,50.68
2019-02-27T15:18:22.497Z,49.59
2019-02-27T15:20:51.821Z,50.06
2019-02-27T15:23:24.477Z,50.36
2019-02-27T15:25:53.948Z,50.40
2019-02-27T15:28:23.608Z,50.03
2019-02-27T15:30:53.175Z,50.69
2019-02-27T15:33:22.901Z,50.29
2019-02-27T15:35:55.125Z,50.24
2019-02-27T15:38:23.988Z,51.13
2019-02-27T15:40:53.601Z,51.09
2019-02-27T15:43:23.208Z,50.16
2019-02-27T15:45:52.842Z,54.05
2019-02-27T15:48:22.470Z,57.45
2019-02-27T15:50:56.581Z,58.75
2019-02-27T15:53:23.408Z,60.53
2019-02-27T15:55:53.034Z,59.93
2019-02-27T15:58:25.301Z,59.96
2019-02-27T16:00:54.078Z,59.72
2019-02-27T16:03:23.681Z,58.28
2019-02-27T16:05:53.299Z,56.55
2019-02-27T16:08:23.584Z,56.35
2019-02-27T16:10:55.281Z,57.62
2019-02-27T16:13:25.094Z,58.65
2019-02-27T16:15:54.767Z,58.76
2019-02-27T16:18:24.403Z,58.47
2019-02-27T16:20:53.984Z,60.88
2019-02-27T16:23:23.753Z,61.04
2019-02-27T16:25:56.650Z,62.63
2019-02-27T16:28:26.275Z,62.98
2019-02-27T16:30:55.938Z,63.05
2019-02-27T16:33:25.647Z,64.46
2019-02-27T16:35:55.295Z,62.46
2019-02-27T16:38:28.356Z,64.26
2019-02-27T16:40:58.031Z,64.82
2019-02-27T16:43:27.609Z,62.73
2019-02-27T16:45:57.283Z,62.16
2019-02-27T16:48:26.976Z,63.01
2019-02-27T16:50:57.415Z,62.62
2019-02-27T16:53:27.994Z,62.44
2019-02-27T16:55:57.619Z,61.26
2019-02-27T16:58:32.662Z,61.15
2019-02-27T17:00:59.206Z,62.89
2019-02-27T17:03:28.893Z,64.20
2019-02-27T17:05:59.234Z,63.42
2019-02-27T17:08:28.943Z,64.46
2019-02-27T17:10:59.722Z,65.67
2019-02-27T17:13:29.409Z,65.66
2019-02-27T17:15:59.009Z,65.47
2019-02-27T17:18:29.311Z,65.65
2019-02-27T17:20:59.063Z,64.79
2019-02-27T17:23:28.653Z,64.18
2019-02-27T17:26:03.389Z,63.32
2019-02-27T17:28:29.878Z,64.42
2019-02-27T17:31:01.749Z,64.62
2019-02-27T17:33:31.591Z,66.54
2019-02-27T17:36:01.334Z,66.41
2019-02-27T17:38:30.948Z,67.21
2019-02-27T17:41:00.600Z,66.88
2019-02-27T17:43:30.271Z,67.59
2019-02-27T17:45:59.947Z,68.48
2019-02-27T17:48:29.610Z,68.40
2019-02-27T17:50:59.311Z,69.66
2019-02-27T17:53:28.893Z,70.27
2019-02-27T17:55:58.630Z,70.18
2019-02-27T17:58:31.912Z,69.01
2019-02-27T18:01:02.344Z,68.21
2019-02-27T18:03:31.938Z,67.47
2019-02-27T18:06:01.596Z,65.69
2019-02-27T18:08:31.234Z,64.43
2019-02-27T18:11:00.918Z,64.64
2019-02-27T18:13:35.291Z,65.63
2019-02-27T18:16:01.944Z,66.60
2019-02-27T18:18:31.704Z,65.90
2019-02-27T18:21:01.361Z,66.32
2019-02-27T18:23:30.968Z,63.73
2019-02-27T18:26:00.745Z,64.84
2019-02-27T18:28:32.878Z,67.46
2019-02-27T18:31:02.113Z,68.96
2019-02-27T18:33:31.854Z,70.21
2019-02-27T18:36:04.780Z,68.93
2019-02-27T18:38:34.543Z,69.30
2019-02-27T18:41:04.245Z,69.26
2019-02-27T18:43:33.815Z,69.45
2019-02-27T18:46:03.503Z,70.38
2019-02-27T18:48:33.142Z,70.44
2019-02-27T18:51:02.871Z,69.87
2019-02-27T18:53:32.485Z,68.75
2019-02-27T18:56:02.780Z,69.58
2019-02-27T18:58:32.453Z,70.52
2019-02-27T19:01:02.110Z,71.15
2019-02-27T19:03:31.738Z,70.59
2019-02-27T19:06:01.356Z,70.35
2019-02-27T19:08:31.163Z,70.96
2019-02-27T19:11:00.944Z,70.79
2019-02-27T19:13:31.718Z,71.44
2019-02-27T19:16:02.296Z,71.73
2019-02-27T19:18:32.023Z,71.19
2019-02-27T19:21:02.748Z,70.14
2019-02-27T19:23:32.575Z,70.17
2019-02-27T19:26:02.746Z,69.43
2019-02-27T19:28:32.371Z,69.52
2019-02-27T19:31:02.152Z,68.84
2019-02-27T19:33:32.504Z,69.16
2019-02-27T19:36:03.589Z,68.77
2019-02-27T19:38:33.333Z,68.21
2019-02-27T19:41:04.059Z,68.03
2019-02-27T19:43:34.510Z,67.82
2019-02-27T19:46:06.969Z,67.62
2019-02-27T19:48:35.827Z,67.98
2019-02-27T19:51:05.675Z,68.90
2019-02-27T19:53:39.385Z,68.12
2019-02-27T19:56:06.741Z,68.73
2019-02-27T19:58:36.552Z,68.19
2019-02-27T20:01:08.707Z,68.92
2019-02-27T20:03:37.607Z,67.73
2019-02-27T20:06:07.667Z,66.46
2019-02-27T20:08:37.398Z,65.67
2019-02-27T20:11:07.383Z,65.65
2019-02-27T20:13:37.069Z,63.28
2019-02-27T20:16:07.154Z,62.59
2019-02-27T20:18:36.871Z,63.48
2019-02-27T20:21:06.763Z,62.47
2019-02-27T20:23:36.642Z,60.20
2019-02-27T20:26:13.845Z,60.04
2019-02-27T20:28:37.851Z,60.80
2019-02-27T20:31:07.691Z,61.87
2019-02-27T20:33:38.017Z,62.01
2019-02-27T20:36:07.817Z,62.10
2019-02-27T20:38:37.446Z,61.86
2019-02-27T20:41:07.420Z,61.44
2019-02-27T20:43:36.992Z,61.23
2019-02-27T20:46:06.791Z,60.78
2019-02-27T20:48:39.526Z,58.77
2019-02-27T20:51:07.456Z,59.61
2019-02-27T20:53:37.145Z,59.36
2019-02-27T20:56:06.733Z,58.41
2019-02-27T20:58:36.443Z,58.21
2019-02-27T21:01:10.044Z,58.33
2019-02-27T21:03:37.613Z,58.47
2019-02-27T21:06:12.774Z,57.86
2019-02-27T21:08:40.814Z,56.69
2019-02-27T21:11:10.398Z,56.84
2019-02-27T21:13:40.042Z,55.37
2019-02-27T21:16:10.232Z,54.22
2019-02-27T21:18:40.335Z,54.50
2019-02-27T21:21:10.080Z,54.41
2019-02-27T21:23:39.739Z,54.03
2019-02-27T21:26:09.452Z,53.72
2019-02-27T21:28:39.147Z,52.04
2019-02-27T21:31:08.731Z,52.53
2019-02-27T21:33:38.313Z,52.31
2019-02-27T21:36:08.088Z,52.51
2019-02-27T21:38:37.657Z,52.49
2019-02-27T21:41:11.346Z,52.90
2019-02-27T21:43:40.000Z,51.41
2019-02-27T21:46:11.726Z,50.90
2019-02-27T21:48:41.355Z,51.04
2019-02-27T21:51:13.580Z,51.45
2019-02-27T21:53:42.351Z,49.38
2019-02-27T21:56:12.022Z,49.85
2019-02-27T21:58:41.728Z,48.89
2019-02-27T22:01:12.923Z,48.40
2019-02-27T22:03:42.620Z,48.13
2019-02-27T22:06:14.366Z,47.59
2019-02-27T22:08:44.014Z,47.02
2019-02-27T22:11:13.688Z,46.62
2019-02-27T22:13:45.403Z,46.70
2019-02-27T22:16:14.817Z,46.81
2019-02-27T22:18:47.136Z,46.63
2019-02-27T22:21:15.813Z,46.79
2019-02-27T22:23:46.007Z,46.88
2019-02-27T22:26:15.716Z,45.84
2019-02-27T22:28:45.368Z,45.81
2019-02-27T22:31:14.978Z,45.76
2019-02-27T22:33:44.587Z,45.89
2019-02-27T22:36:14.340Z,46.00
2019-02-27T22:38:43.953Z,45.85
2019-02-27T22:41:13.675Z,46.14
2019-02-27T22:43:43.364Z,45.77
2019-02-27T22:46:13.720Z,46.07
2019-02-27T22:48:44.470Z,46.34
2019-02-27T22:51:14.180Z,45.78
2019-02-27T22:53:43.850Z,45.43
2019-02-27T22:58:51.667Z,45.57
2019-02-27T23:01:34.902Z,46.12
2019-02-27T23:04:06.823Z,45.11
2019-02-27T23:06:36.575Z,45.35
2019-02-27T23:09:12.945Z,45.68
2019-02-27T23:11:43.037Z,45.67
2019-02-27T23:14:12.866Z,45.82
2019-02-27T23:16:42.488Z,45.70
2019-02-27T23:19:13.108Z,45.28
2019-02-27T23:21:43.095Z,45.74
2019-02-27T23:24:13.176Z,45.82
2019-02-27T23:26:42.802Z,45.66
2019-02-27T23:29:12.411Z,46.09
2019-02-27T23:31:42.273Z,45.92
2019-02-27T23:34:11.975Z,45.71
2019-02-27T23:36:41.706Z,45.81
2019-02-27T23:39:11.423Z,45.51
2019-02-27T23:41:41.071Z,46.10
2019-02-27T23:44:12.198Z,46.17
2019-02-27T23:46:48.712Z,46.55
2019-02-27T23:49:13.280Z,46.37
2019-02-27T23:51:42.877Z,46.32
2019-02-27T23:54:12.490Z,46.21
2019-02-27T23:56:42.189Z,46.47
2019-02-27T23:59:11.777Z,46.73
